Time;durP1;ratioP1;P1;durP2;ratioP2;P2;SDS_P1;SDS_P2;PMS_P1;PMS_P2;Temp;Humidity;BMP_temperature;BMP_pressure;BME280_temperature;BME280_humidity;BME280_pressure;Samples;Min_cycle;Max_cycle;Signal;HPM_P1;HPM_P2
2021/12/24 00:00:06;;;;;;;2.00;1.10;;;;;;;;;;5135779;27;20166;-73
2021/12/24 00:02:33;;;;;;;3.75;1.10;;;;;;;;;;5136206;27;20033;-73
2021/12/24 00:05:01;;;;;;;2.10;1.00;;;;;;;;;;5154761;27;20015;-72
2021/12/24 00:07:28;;;;;;;2.83;1.30;;;;;;;;;;5154701;27;20098;-72
2021/12/24 00:09:55;;;;;;;2.45;1.00;;;;;;;;;;5154572;27;20014;-72
2021/12/24 00:12:24;;;;;;;2.67;0.90;;;;;;;;;;5154568;27;20079;-72
2021/12/24 00:14:56;;;;;;;3.75;1.35;;;;;;;;;;5154744;27;20433;-72
2021/12/24 00:17:29;;;;;;;3.25;1.00;;;;;;;;;;5154655;27;20050;-73
2021/12/24 00:20:12;;;;;;;3.47;1.15;;;;;;;;;;5154713;27;20036;-72
2021/12/24 00:23:13;;;;;;;5.10;1.52;;;;;;;;;;5154606;27;20030;-72
2021/12/24 00:35:08;;;;;;;;;;;;;;;;;;;;;
2021/12/24 00:36:26;;;;;;;3.58;1.35;;;;;;;;;;5158794;27;20079;-72
2021/12/24 00:38:53;;;;;;;6.88;1.45;;;;;;;;;;5158699;27;20478;-72
2021/12/24 00:41:21;;;;;;;5.82;1.85;;;;;;;;;;5158631;27;20136;-72
2021/12/24 00:43:48;;;;;;;4.13;1.67;;;;;;;;;;5158688;27;20028;-72
2021/12/24 00:46:15;;;;;;;5.00;2.08;;;;;;;;;;5139655;27;20030;-72
2021/12/24 00:48:42;;;;;;;4.78;1.50;;;;;;;;;;5158403;27;20102;-72
2021/12/24 00:52:06;;;;;;;3.50;1.25;;;;;;;;;;5139406;27;20067;-72
2021/12/24 00:56:41;;;;;;;4.30;1.75;;;;;;;;;;5158638;27;20087;-72
2021/12/24 00:59:08;;;;;;;4.13;1.80;;;;;;;;;;5158266;27;20026;-72
2021/12/24 01:01:36;;;;;;;5.25;1.90;;;;;;;;;;5158276;27;20029;-72
2021/12/24 01:04:03;;;;;;;5.20;2.05;;;;;;;;;;5158080;27;20025;-72
2021/12/24 01:06:30;;;;;;;7.28;2.30;;;;;;;;;;5158063;27;20017;-73
2021/12/24 01:08:57;;;;;;;5.07;1.60;;;;;;;;;;5158010;27;20482;-71
2021/12/24 01:11:27;;;;;;;7.40;1.92;;;;;;;;;;5139097;27;20057;-72
2021/12/24 01:13:54;;;;;;;5.22;1.60;;;;;;;;;;5138969;27;20022;-72
2021/12/24 01:16:35;;;;;;;6.38;1.60;;;;;;;;;;5138996;27;20027;-72
2021/12/24 01:19:09;;;;;;;5.13;1.70;;;;;;;;;;5157704;27;20053;-72
2021/12/24 01:24:08;;;;;;;4.95;2.00;;;;;;;;;;5157692;27;20015;-73
2021/12/24 01:29:55;;;;;;;7.30;2.17;;;;;;;;;;5157517;27;20163;-73
2021/12/24 01:42:46;;;;;;;;;;;;;;;;;;5157058;27;20475;-73
2021/12/24 01:45:17;;;;;;;4.72;1.50;;;;;;;;;;5138758;27;19993;-73
2021/12/24 01:47:44;;;;;;;4.05;1.25;;;;;;;;;;5157218;27;20446;-73
2021/12/24 01:50:12;;;;;;;4.10;1.30;;;;;;;;;;5157181;27;20075;-73
2021/12/24 01:52:39;;;;;;;5.25;1.65;;;;;;;;;;5156920;27;20031;-73
2021/12/24 01:55:07;;;;;;;5.50;1.75;;;;;;;;;;5138249;27;20475;-73
2021/12/24 01:57:34;;;;;;;4.50;1.48;;;;;;;;;;5157231;27;20029;-73
2021/12/24 02:00:03;;;;;;;4.57;1.65;;;;;;;;;;5157021;27;20026;-74
2021/12/24 02:02:31;;;;;;;4.57;1.75;;;;;;;;;;5157042;27;20019;-74
2021/12/24 02:04:58;;;;;;;5.88;1.85;;;;;;;;;;5156877;27;20046;-73
2021/12/24 02:07:25;;;;;;;4.13;1.63;;;;;;;;;;5156849;27;20018;-73
2021/12/24 02:09:54;;;;;;;3.30;1.50;;;;;;;;;;5137886;27;20053;-73
2021/12/24 02:12:24;;;;;;;3.58;1.85;;;;;;;;;;5156916;27;20023;-74
2021/12/24 02:14:54;;;;;;;4.57;1.60;;;;;;;;;;5138123;27;20019;-74
2021/12/24 02:28:35;;;;;;;3.17;1.27;;;;;;;;;;5156551;27;20042;-73
2021/12/24 02:31:03;;;;;;;3.97;1.85;;;;;;;;;;5156518;27;20378;-73
2021/12/24 02:33:30;;;;;;;4.40;1.67;;;;;;;;;;5156536;27;20018;-73
2021/12/24 02:35:57;;;;;;;3.30;1.50;;;;;;;;;;5156352;27;20187;-72
2021/12/24 02:38:24;;;;;;;4.45;1.85;;;;;;;;;;5156326;27;20015;-72
2021/12/24 02:40:52;;;;;;;5.45;2.08;;;;;;;;;;5137703;27;20023;-73
2021/12/24 02:43:22;;;;;;;4.80;1.80;;;;;;;;;;5156099;27;20022;-72
2021/12/24 02:45:50;;;;;;;;;;;;;;;;;;5156683;27;20021;-73
2021/12/24 02:53:59;;;;;;;6.18;1.73;;;;;;;;;;5156042;27;20189;-73
2021/12/24 02:56:32;;;;;;;4.88;1.67;;;;;;;;;;5137418;27;20015;-74
2021/12/24 02:59:03;;;;;;;5.30;1.45;;;;;;;;;;5155794;27;20474;-73
2021/12/24 03:01:33;;;;;;;3.38;1.50;;;;;;;;;;5137256;27;20051;-73
2021/12/24 03:04:00;;;;;;;5.18;2.13;;;;;;;;;;5136813;27;20021;-73
2021/12/24 03:06:29;;;;;;;5.28;1.50;;;;;;;;;;5137413;27;20031;-72
2021/12/24 03:08:56;;;;;;;5.20;2.22;;;;;;;;;;5136836;27;20106;-74
2021/12/24 03:11:24;;;;;;;4.63;2.05;;;;;;;;;;5155607;27;20053;-74
2021/12/24 03:13:51;;;;;;;5.32;1.90;;;;;;;;;;5155629;27;20067;-73
2021/12/24 03:16:19;;;;;;;5.03;1.45;;;;;;;;;;5155566;27;20383;-74
2021/12/24 03:18:47;;;;;;;9.52;2.22;;;;;;;;;;5136600;27;20030;-74
2021/12/24 03:21:19;;;;;;;3.55;1.45;;;;;;;;;;5136610;27;20029;-73
2021/12/24 03:26:34;;;;;;;5.28;1.90;;;;;;;;;;5112284;27;20054;-73
2021/12/24 03:29:01;;;;;;;5.97;1.92;;;;;;;;;;5136531;27;20566;-73
2021/12/24 03:31:28;;;;;;;7.13;1.90;;;;;;;;;;5155154;27;20432;-74
2021/12/24 03:33:55;;;;;;;5.15;1.65;;;;;;;;;;5136615;27;20023;-73
2021/12/24 03:36:24;;;;;;;5.85;1.83;;;;;;;;;;5155178;27;20023;-74
2021/12/24 03:38:52;;;;;;;4.32;1.90;;;;;;;;;;5155085;27;20033;-73
2021/12/24 03:41:19;;;;;;;7.30;2.03;;;;;;;;;;5136054;27;20022;-74
2021/12/24 03:43:47;;;;;;;6.90;1.83;;;;;;;;;;5154999;27;20677;-73
2021/12/24 03:46:17;;;;;;;5.35;1.77;;;;;;;;;;5135997;27;20490;-73
2021/12/24 03:48:53;;;;;;;6.68;1.95;;;;;;;;;;5155134;27;20094;-74
2021/12/24 03:57:11;;;;;;;6.10;1.70;;;;;;;;;;5091256;28;20035;-73
2021/12/24 03:59:38;;;;;;;5.47;1.67;;;;;;;;;;5129165;27;20394;-74
2021/12/24 04:02:05;;;;;;;4.18;1.63;;;;;;;;;;5135694;27;20019;-74
2021/12/24 04:04:32;;;;;;;5.30;1.58;;;;;;;;;;5154112;27;20343;-74
2021/12/24 04:06:59;;;;;;;3.88;1.60;;;;;;;;;;5154601;27;20021;-73
2021/12/24 04:09:28;;;;;;;6.28;1.67;;;;;;;;;;5154748;27;20034;-74
2021/12/24 04:11:56;;;;;;;3.63;1.70;;;;;;;;;;5154594;27;20097;-73
2021/12/24 04:14:23;;;;;;;3.53;1.50;;;;;;;;;;5135721;27;20038;-73
2021/12/24 04:16:50;;;;;;;4.30;1.52;;;;;;;;;;5154612;27;20471;-73
2021/12/24 04:24:48;;;;;;;4.80;1.67;;;;;;;;;;5154479;27;20029;-73
2021/12/24 04:24:56;;;;;;;4.97;1.70;;;;;;;;;;5154618;27;20022;-74
2021/12/24 04:27:25;;;;;;;4.60;1.50;;;;;;;;;;5154481;27;20019;-74
2021/12/24 04:30:03;;;;;;;7.70;2.17;;;;;;;;;;5135944;27;20049;-74
2021/12/24 04:32:52;;;;;;;6.40;1.95;;;;;;;;;;5154458;27;20392;-75
2021/12/24 04:35:37;;;;;;;4.57;1.63;;;;;;;;;;5154425;27;20102;-75
2021/12/24 04:51:57;;;;;;;3.67;1.48;;;;;;;;;;5154542;27;20083;-73
2021/12/24 05:06:09;;;;;;;7.20;1.70;;;;;;;;;;5154030;27;20023;-73
2021/12/24 05:08:41;;;;;;;4.45;1.63;;;;;;;;;;5139001;27;20114;-73
2021/12/24 05:10:48;;;;;;;5.60;2.03;;;;;;;;;;5145355;27;20031;-74
2021/12/24 05:13:17;;;;;;;6.97;1.75;;;;;;;;;;5135425;27;20019;-74
2021/12/24 05:15:48;;;;;;;5.57;2.40;;;;;;;;;;5153915;27;20023;-73
2021/12/24 05:23:43;;;;;;;6.28;2.10;;;;;;;;;;5157846;27;20548;-73
2021/12/24 05:26:12;;;;;;;5.60;2.13;;;;;;;;;;5138929;27;20015;-73
2021/12/24 05:28:40;;;;;;;8.13;2.65;;;;;;;;;;5138790;27;20018;-73
2021/12/24 05:31:07;;;;;;;5.22;1.85;;;;;;;;;;5138627;27;20540;-73
2021/12/24 05:33:34;;;;;;;7.20;1.80;;;;;;;;;;5138649;27;20470;-73
2021/12/24 05:36:01;;;;;;;4.97;2.10;;;;;;;;;;5138825;27;20542;-73
2021/12/24 05:38:30;;;;;;;7.88;1.88;;;;;;;;;;5138568;27;20493;-73
2021/12/24 05:40:57;;;;;;;6.82;1.88;;;;;;;;;;5157307;27;20019;-75
2021/12/24 05:43:24;;;;;;;6.97;1.88;;;;;;;;;;5157432;27;20025;-73
2021/12/24 05:45:51;;;;;;;6.28;1.70;;;;;;;;;;5157254;27;20031;-73
2021/12/24 05:48:18;;;;;;;7.50;2.10;;;;;;;;;;5157359;27;20024;-72
2021/12/24 05:50:46;;;;;;;6.53;2.05;;;;;;;;;;5157203;27;20053;-72
2021/12/24 05:53:13;;;;;;;7.95;1.98;;;;;;;;;;5157007;27;20486;-73
2021/12/24 05:55:40;;;;;;;6.35;2.10;;;;;;;;;;5157077;27;20018;-73
2021/12/24 05:58:08;;;;;;;6.82;2.30;;;;;;;;;;5138624;27;20034;-74
2021/12/24 06:00:39;;;;;;;8.07;2.00;;;;;;;;;;5137899;27;20033;-73
2021/12/24 06:03:09;;;;;;;6.65;1.85;;;;;;;;;;5156946;27;20025;-73
2021/12/24 06:05:37;;;;;;;10.30;2.63;;;;;;;;;;5138135;27;20116;-74
2021/12/24 06:08:05;;;;;;;6.82;1.73;;;;;;;;;;5157005;27;20385;-72
2021/12/24 06:10:33;;;;;;;5.50;1.85;;;;;;;;;;5156876;27;20030;-73
2021/12/24 06:13:00;;;;;;;5.38;2.08;;;;;;;;;;5138290;27;20022;-73
2021/12/24 06:15:28;;;;;;;9.00;2.75;;;;;;;;;;5137520;27;20053;-73
2021/12/24 06:17:57;;;;;;;8.90;2.55;;;;;;;;;;5137705;27;20438;-73
2021/12/24 06:20:26;;;;;;;7.13;2.20;;;;;;;;;;5156379;27;20022;-73
2021/12/24 06:22:53;;;;;;;6.03;1.98;;;;;;;;;;5156683;27;20019;-73
2021/12/24 06:25:21;;;;;;;6.40;2.50;;;;;;;;;;5156586;27;20470;-74
2021/12/24 06:27:48;;;;;;;7.22;2.20;;;;;;;;;;5155928;27;20490;-74
2021/12/24 06:30:16;;;;;;;5.45;1.98;;;;;;;;;;5156430;27;20019;-74
2021/12/24 06:32:43;;;;;;;7.47;2.58;;;;;;;;;;5137382;27;20023;-74
2021/12/24 06:35:10;;;;;;;8.48;2.28;;;;;;;;;;5156370;27;20055;-74
2021/12/24 06:37:38;;;;;;;6.70;2.00;;;;;;;;;;5137693;27;20494;-74
2021/12/24 06:40:06;;;;;;;7.13;2.58;;;;;;;;;;5156124;27;20058;-74
2021/12/24 06:42:33;;;;;;;7.10;2.40;;;;;;;;;;5156068;27;20094;-74
2021/12/24 06:45:01;;;;;;;8.43;2.30;;;;;;;;;;5137212;27;20068;-74
2021/12/24 06:47:28;;;;;;;10.30;2.58;;;;;;;;;;5155979;27;20067;-74
2021/12/24 06:49:56;;;;;;;6.30;2.10;;;;;;;;;;5155675;27;20053;-74
2021/12/24 06:52:23;;;;;;;7.45;2.45;;;;;;;;;;5136731;27;20029;-74
2021/12/24 06:54:50;;;;;;;9.18;2.55;;;;;;;;;;5137179;27;20458;-74
2021/12/24 06:57:19;;;;;;;5.35;2.13;;;;;;;;;;5155789;27;20023;-73
2021/12/24 06:59:47;;;;;;;10.50;2.38;;;;;;;;;;5155841;27;20023;-74
2021/12/24 07:02:15;;;;;;;6.45;2.75;;;;;;;;;;5136567;27;20026;-74
2021/12/24 07:04:42;;;;;;;6.50;2.50;;;;;;;;;;5155542;27;20032;-74
2021/12/24 07:07:09;;;;;;;6.03;1.92;;;;;;;;;;5155564;27;20022;-73
2021/12/24 07:09:42;;;;;;;7.95;3.05;;;;;;;;;;5155652;27;20025;-74
2021/12/24 07:12:11;;;;;;;9.13;2.75;;;;;;;;;;5136883;27;20074;-74
2021/12/24 07:14:38;;;;;;;8.20;2.75;;;;;;;;;;5155515;27;20107;-73
2021/12/24 07:17:05;;;;;;;8.95;2.78;;;;;;;;;;5155471;27;20100;-73
2021/12/24 07:19:33;;;;;;;7.63;2.58;;;;;;;;;;5136455;27;20102;-73
2021/12/24 07:22:00;;;;;;;9.70;3.45;;;;;;;;;;5155252;27;20071;-73
2021/12/24 07:24:27;;;;;;;6.97;2.67;;;;;;;;;;5155507;27;20026;-73
2021/12/24 07:26:54;;;;;;;9.63;2.88;;;;;;;;;;5155442;27;20023;-73
2021/12/24 07:29:22;;;;;;;8.10;2.80;;;;;;;;;;5136294;27;20110;-73
2021/12/24 07:31:49;;;;;;;9.88;2.67;;;;;;;;;;5155282;27;20027;-73
2021/12/24 07:34:16;;;;;;;7.13;2.50;;;;;;;;;;5136378;27;20053;-73
2021/12/24 07:36:43;;;;;;;10.15;2.53;;;;;;;;;;5155252;27;20023;-73
2021/12/24 07:39:10;;;;;;;10.10;2.78;;;;;;;;;;5154471;27;20494;-74
2021/12/24 07:41:38;;;;;;;10.55;3.15;;;;;;;;;;5154919;27;20542;-73
2021/12/24 07:44:05;;;;;;;9.30;2.90;;;;;;;;;;5136031;27;20501;-74
2021/12/24 07:46:40;;;;;;;8.63;2.80;;;;;;;;;;5155021;27;20015;-74
2021/12/24 07:54:36;;;;;;;7.30;2.60;;;;;;;;;;5154763;27;20038;-73
2021/12/24 07:57:04;;;;;;;8.02;3.30;;;;;;;;;;5155090;27;20067;-74
2021/12/24 07:59:31;;;;;;;10.57;3.67;;;;;;;;;;5136257;27;20018;-73
2021/12/24 08:01:58;;;;;;;7.78;2.72;;;;;;;;;;5154920;27;20015;-73
2021/12/24 08:04:26;;;;;;;8.65;3.05;;;;;;;;;;5154511;27;20530;-73
2021/12/24 08:06:53;;;;;;;10.63;3.53;;;;;;;;;;5154732;27;20484;-73
2021/12/24 08:09:20;;;;;;;9.90;3.08;;;;;;;;;;5136094;27;20033;-73
2021/12/24 08:11:47;;;;;;;7.47;3.22;;;;;;;;;;5154632;27;20041;-73
2021/12/24 08:14:14;;;;;;;10.68;3.70;;;;;;;;;;5154569;27;20386;-73
2021/12/24 08:16:43;;;;;;;8.13;3.10;;;;;;;;;;5154561;27;20015;-73
2021/12/24 08:19:11;;;;;;;12.00;3.72;;;;;;;;;;5154354;27;20046;-73
2021/12/24 08:21:38;;;;;;;9.38;2.80;;;;;;;;;;5154572;27;20014;-73
2021/12/24 08:24:05;;;;;;;11.18;4.10;;;;;;;;;;5154514;27;20367;-72
2021/12/24 08:26:32;;;;;;;14.23;3.45;;;;;;;;;;5135533;27;20128;-73
2021/12/24 08:29:00;;;;;;;9.77;3.65;;;;;;;;;;5135344;27;20079;-73
2021/12/24 08:31:27;;;;;;;9.18;3.47;;;;;;;;;;5154495;27;20030;-73
2021/12/24 08:33:54;;;;;;;9.00;3.60;;;;;;;;;;5154492;27;20030;-73
2021/12/24 08:36:21;;;;;;;10.45;3.50;;;;;;;;;;5154363;27;20015;-73
2021/12/24 08:38:49;;;;;;;9.82;3.65;;;;;;;;;;5135446;27;20053;-73
2021/12/24 08:41:16;;;;;;;11.50;3.83;;;;;;;;;;5154311;27;20039;-73
2021/12/24 08:43:43;;;;;;;13.80;4.03;;;;;;;;;;5154332;27;20023;-73
2021/12/24 08:46:10;;;;;;;11.27;4.20;;;;;;;;;;5135864;27;20019;-73
2021/12/24 08:48:37;;;;;;;11.13;3.97;;;;;;;;;;5135577;27;20398;-73
2021/12/24 08:51:04;;;;;;;12.65;4.05;;;;;;;;;;5155662;27;20015;-73
2021/12/24 08:53:31;;;;;;;14.32;5.20;;;;;;;;;;5158300;27;20039;-73
2021/12/24 08:55:59;;;;;;;10.80;3.80;;;;;;;;;;5158197;27;20010;-73
2021/12/24 08:58:26;;;;;;;11.55;4.38;;;;;;;;;;5158336;27;20015;-73
2021/12/24 09:00:53;;;;;;;9.55;3.90;;;;;;;;;;5158197;27;20030;-73
2021/12/24 09:03:20;;;;;;;11.32;4.05;;;;;;;;;;5139378;27;20019;-73
2021/12/24 09:05:48;;;;;;;10.75;3.60;;;;;;;;;;5139156;27;20101;-72
2021/12/24 09:08:15;;;;;;;9.75;3.97;;;;;;;;;;5158241;27;20034;-72
2021/12/24 09:10:42;;;;;;;13.38;3.95;;;;;;;;;;5158086;27;20018;-72
2021/12/24 09:13:09;;;;;;;12.65;4.05;;;;;;;;;;5158160;27;20042;-72
2021/12/24 09:15:37;;;;;;;10.70;4.13;;;;;;;;;;5157989;27;20029;-73
2021/12/24 09:18:05;;;;;;;10.45;5.22;;;;;;;;;;5157916;27;20071;-72
2021/12/24 09:20:38;;;;;;;12.40;4.45;;;;;;;;;;5138889;27;20037;-73
2021/12/24 09:23:06;;;;;;;16.95;5.40;;;;;;;;;;5157851;27;20014;-73
2021/12/24 09:25:33;;;;;;;10.80;4.15;;;;;;;;;;5157812;27;20041;-72
2021/12/24 09:28:01;;;;;;;13.27;4.10;;;;;;;;;;5157739;27;20014;-72
2021/12/24 09:30:29;;;;;;;10.63;4.13;;;;;;;;;;5157664;27;20019;-73
2021/12/24 09:32:56;;;;;;;10.30;4.90;;;;;;;;;;5157772;27;20025;-72
2021/12/24 09:35:25;;;;;;;8.85;4.05;;;;;;;;;;5157541;27;20023;-72
2021/12/24 09:37:52;;;;;;;9.18;4.15;;;;;;;;;;5157708;27;20042;-72
2021/12/24 09:40:20;;;;;;;7.47;3.42;;;;;;;;;;5138488;27;20117;-72
2021/12/24 09:42:47;;;;;;;10.25;4.18;;;;;;;;;;5157550;27;20158;-72
2021/12/24 09:45:15;;;;;;;9.30;3.97;;;;;;;;;;5138460;27;20026;-71
2021/12/24 09:47:42;;;;;;;10.82;4.28;;;;;;;;;;5157348;27;20386;-72
2021/12/24 09:50:12;;;;;;;14.35;4.35;;;;;;;;;;5138474;27;20030;-72
2021/12/24 09:52:40;;;;;;;11.85;4.03;;;;;;;;;;5157238;27;20102;-72
2021/12/24 09:55:11;;;;;;;15.15;4.13;;;;;;;;;;5157324;27;20490;-72
2021/12/24 09:57:39;;;;;;;14.00;4.20;;;;;;;;;;5138397;27;20550;-72
2021/12/24 10:00:07;;;;;;;9.35;3.95;;;;;;;;;;5157204;27;20389;-72
2021/12/24 10:02:43;;;;;;;13.93;5.07;;;;;;;;;;5156244;27;20036;-71
2021/12/24 10:05:24;;;;;;;11.93;4.38;;;;;;;;;;5138053;27;20030;-72
2021/12/24 10:07:52;;;;;;;12.82;4.07;;;;;;;;;;5157074;27;20101;-72
2021/12/24 10:10:28;;;;;;;12.60;4.70;;;;;;;;;;5157062;27;20018;-72
2021/12/24 10:12:55;;;;;;;14.02;4.85;;;;;;;;;;5157088;27;20406;-72
2021/12/24 10:15:22;;;;;;;14.30;4.72;;;;;;;;;;5156699;27;20046;-72
2021/12/24 10:17:50;;;;;;;12.23;4.78;;;;;;;;;;5156650;27;20034;-72
2021/12/24 10:20:18;;;;;;;15.65;5.18;;;;;;;;;;5156674;27;20031;-72
2021/12/24 10:22:46;;;;;;;14.00;5.38;;;;;;;;;;5137977;27;20019;-72
2021/12/24 10:25:14;;;;;;;13.10;4.05;;;;;;;;;;5156614;27;20079;-72
2021/12/24 10:27:42;;;;;;;11.05;4.40;;;;;;;;;;5138057;27;20053;-72
2021/12/24 10:30:21;;;;;;;13.55;4.60;;;;;;;;;;5137676;27;20034;-72
2021/12/24 10:32:49;;;;;;;12.45;4.50;;;;;;;;;;5156526;27;20046;-72
2021/12/24 10:35:23;;;;;;;13.25;4.60;;;;;;;;;;5156436;27;20501;-72
2021/12/24 10:38:08;;;;;;;8.88;4.53;;;;;;;;;;5156456;27;20023;-72
2021/12/24 10:40:35;;;;;;;12.13;4.47;;;;;;;;;;5156280;27;20030;-72
2021/12/24 10:43:02;;;;;;;8.98;4.05;;;;;;;;;;5156607;27;20042;-71
2021/12/24 10:45:32;;;;;;;11.50;3.60;;;;;;;;;;5156253;27;20045;-71
2021/12/24 10:47:59;;;;;;;10.63;4.30;;;;;;;;;;5156378;27;20023;-72
2021/12/24 10:50:31;;;;;;;12.95;4.57;;;;;;;;;;5137224;27;20398;-72
2021/12/24 10:55:44;;;;;;;14.32;4.50;;;;;;;;;;5156048;27;20031;-72
2021/12/24 10:58:16;;;;;;;10.82;3.58;;;;;;;;;;5155875;27;20391;-72
2021/12/24 11:00:48;;;;;;;8.80;3.28;;;;;;;;;;5136913;27;20049;-72
2021/12/24 11:03:26;;;;;;;9.77;3.63;;;;;;;;;;5155829;27;20014;-71
2021/12/24 11:06:03;;;;;;;8.18;3.78;;;;;;;;;;5155750;27;20471;-72
2021/12/24 11:08:30;;;;;;;10.88;4.00;;;;;;;;;;5136548;27;20019;-72
2021/12/24 11:10:59;;;;;;;8.02;3.10;;;;;;;;;;5155458;27;20071;-72
2021/12/24 11:13:38;;;;;;;11.55;3.75;;;;;;;;;;5155406;27;20093;-72
2021/12/24 11:16:06;;;;;;;10.05;3.42;;;;;;;;;;5136691;27;20091;-72
2021/12/24 11:18:35;;;;;;;7.53;3.50;;;;;;;;;;5155429;27;20097;-72
2021/12/24 11:21:06;;;;;;;8.18;2.95;;;;;;;;;;5136505;27;20018;-72
2021/12/24 11:23:35;;;;;;;7.60;2.80;;;;;;;;;;5155270;27;20383;-72
2021/12/24 11:26:04;;;;;;;8.05;3.08;;;;;;;;;;5136784;27;20019;-72
2021/12/24 11:28:31;;;;;;;9.60;3.20;;;;;;;;;;5136612;27;20019;-72
2021/12/24 11:31:03;;;;;;;8.25;2.92;;;;;;;;;;5136496;27;20050;-72
2021/12/24 11:33:31;;;;;;;10.73;3.15;;;;;;;;;;5136492;27;20018;-72
2021/12/24 11:36:04;;;;;;;8.18;2.90;;;;;;;;;;5155121;27;20029;-72
2021/12/24 11:38:32;;;;;;;7.93;2.55;;;;;;;;;;5155194;27;20386;-72
2021/12/24 11:41:00;;;;;;;8.90;3.03;;;;;;;;;;5155099;27;20019;-73
2021/12/24 11:43:29;;;;;;;9.70;2.90;;;;;;;;;;5136570;27;20569;-72
2021/12/24 11:46:00;;;;;;;7.15;2.50;;;;;;;;;;5155180;27;20018;-72
2021/12/24 11:48:30;;;;;;;7.03;2.70;;;;;;;;;;5154987;27;20023;-72
2021/12/24 11:50:58;;;;;;;8.52;2.83;;;;;;;;;;5155388;27;20026;-72
2021/12/24 11:53:26;;;;;;;9.32;2.90;;;;;;;;;;5154661;27;20046;-72
2021/12/24 11:55:53;;;;;;;8.25;2.42;;;;;;;;;;5136137;27;20179;-72
2021/12/24 11:58:22;;;;;;;7.63;2.42;;;;;;;;;;5154978;27;20027;-73
2021/12/24 12:00:51;;;;;;;8.05;2.60;;;;;;;;;;5154768;27;20381;-72
2021/12/24 12:03:36;;;;;;;10.27;3.25;;;;;;;;;;5154782;27;20025;-72
2021/12/24 12:06:23;;;;;;;10.30;3.08;;;;;;;;;;5154804;27;20043;-72
2021/12/24 12:08:54;;;;;;;6.53;2.63;;;;;;;;;;5153294;27;20023;-72
2021/12/24 12:11:24;;;;;;;8.82;2.70;;;;;;;;;;5154848;27;20107;-72
2021/12/24 12:14:01;;;;;;;7.38;3.00;;;;;;;;;;5154750;27;20211;-72
2021/12/24 12:16:41;;;;;;;6.07;2.58;;;;;;;;;;5135842;27;20022;-72
2021/12/24 12:19:14;;;;;;;9.18;2.70;;;;;;;;;;5135743;27;20497;-72
2021/12/24 12:21:44;;;;;;;11.13;3.00;;;;;;;;;;5154581;27;20023;-72
2021/12/24 12:26:44;;;;;;;6.80;2.45;;;;;;;;;;5159106;27;20018;-72
2021/12/24 12:29:20;;;;;;;8.48;2.58;;;;;;;;;;5161516;27;20026;-72
2021/12/24 12:32:10;;;;;;;8.63;2.50;;;;;;;;;;5161238;27;20051;-72
2021/12/24 12:34:41;;;;;;;9.27;2.95;;;;;;;;;;5161385;27;20026;-72
2021/12/24 12:37:14;;;;;;;8.52;3.22;;;;;;;;;;5161478;27;20045;-72
2021/12/24 12:39:41;;;;;;;9.80;3.17;;;;;;;;;;5161365;27;20027;-72
2021/12/24 12:42:09;;;;;;;8.30;3.13;;;;;;;;;;5142226;27;20049;-72
2021/12/24 12:44:40;;;;;;;10.85;3.92;;;;;;;;;;5161064;27;20050;-72
2021/12/24 12:47:24;;;;;;;11.18;4.32;;;;;;;;;;5160929;27;20022;-72
2021/12/24 12:50:10;;;;;;;12.75;4.57;;;;;;;;;;5161172;27;20385;-72
2021/12/24 12:52:38;;;;;;;12.25;5.03;;;;;;;;;;5142427;27;20026;-73
2021/12/24 12:55:05;;;;;;;12.40;4.78;;;;;;;;;;5161406;27;20510;-72
2021/12/24 12:57:37;;;;;;;15.50;4.97;;;;;;;;;;5161142;27;20029;-72
2021/12/24 13:00:17;;;;;;;18.33;5.03;;;;;;;;;;5161169;27;20071;-72
2021/12/24 13:02:53;;;;;;;14.23;4.47;;;;;;;;;;5161296;27;20042;-72
2021/12/24 13:05:21;;;;;;;15.63;5.10;;;;;;;;;;5142562;27;20079;-72
2021/12/24 13:07:48;;;;;;;14.93;4.93;;;;;;;;;;5142604;27;20393;-72
2021/12/24 13:10:19;;;;;;;16.25;5.35;;;;;;;;;;5161071;27;20022;-72
2021/12/24 13:12:46;;;;;;;17.00;5.18;;;;;;;;;;5161212;27;20022;-72
2021/12/24 13:15:16;;;;;;;16.60;4.75;;;;;;;;;;5161016;27;20026;-72
2021/12/24 13:17:45;;;;;;;15.15;4.30;;;;;;;;;;5142140;27;20485;-72
2021/12/24 13:20:44;;;;;;;20.02;4.18;;;;;;;;;;5160913;27;20065;-72
2021/12/24 13:23:22;;;;;;;14.35;4.53;;;;;;;;;;5160617;27;20027;-72
2021/12/24 13:25:49;;;;;;;15.18;4.88;;;;;;;;;;5161009;27;20102;-72
2021/12/24 13:28:16;;;;;;;15.48;4.57;;;;;;;;;;5160879;27;20045;-72
2021/12/24 13:30:43;;;;;;;18.90;5.20;;;;;;;;;;5160889;27;20033;-70
2021/12/24 13:33:11;;;;;;;13.80;5.00;;;;;;;;;;5160905;27;20067;-71
2021/12/24 13:35:41;;;;;;;14.95;4.75;;;;;;;;;;5142427;27;20394;-71
2021/12/24 13:38:14;;;;;;;15.90;4.78;;;;;;;;;;5157370;27;20493;-72
2021/12/24 13:40:42;;;;;;;15.85;4.90;;;;;;;;;;5157550;27;20498;-72
2021/12/24 13:43:12;;;;;;;14.68;4.85;;;;;;;;;;5157710;27;20019;-72
2021/12/24 13:45:38;;;;;;;;;;;;;;;;;;5158005;27;20015;-72
2021/12/24 13:48:09;;;;;;;14.23;4.40;;;;;;;;;;5157533;27;19903;-72
2021/12/24 13:56:19;;;;;;;20.17;5.38;;;;;;;;;;5157646;27;20116;-72
2021/12/24 13:58:56;;;;;;;16.05;4.93;;;;;;;;;;5138349;27;20046;-72
2021/12/24 14:01:24;;;;;;;13.70;4.13;;;;;;;;;;5138301;27;20018;-72
2021/12/24 14:03:52;;;;;;;14.23;4.88;;;;;;;;;;5157045;27;20034;-71
2021/12/24 14:06:19;;;;;;;20.88;5.53;;;;;;;;;;5157101;27;20015;-72
2021/12/24 14:08:46;;;;;;;15.13;4.63;;;;;;;;;;5157134;27;20023;-72
2021/12/24 14:11:18;;;;;;;13.57;4.35;;;;;;;;;;5157058;27;20025;-72
2021/12/24 14:13:53;;;;;;;16.73;5.60;;;;;;;;;;5157038;27;20014;-72
2021/12/24 14:16:39;;;;;;;12.38;4.78;;;;;;;;;;5156993;27;20059;-72
2021/12/24 14:19:19;;;;;;;13.98;4.80;;;;;;;;;;5156954;27;20410;-72
2021/12/24 14:21:48;;;;;;;13.77;4.57;;;;;;;;;;5157016;27;20015;-72
2021/12/24 14:24:18;;;;;;;12.88;4.70;;;;;;;;;;5156773;27;20427;-72
2021/12/24 14:27:05;;;;;;;12.25;4.47;;;;;;;;;;5156759;27;20015;-72
2021/12/24 14:29:43;;;;;;;12.80;5.03;;;;;;;;;;5156716;27;20030;-72
2021/12/24 14:32:12;;;;;;;12.50;4.85;;;;;;;;;;5156544;27;20026;-72
2021/12/24 14:34:42;;;;;;;17.10;5.15;;;;;;;;;;5156497;27;20018;-72
2021/12/24 14:37:33;;;;;;;14.48;4.63;;;;;;;;;;5137740;27;20075;-72
2021/12/24 14:40:01;;;;;;;14.23;4.55;;;;;;;;;;5125698;27;20027;-72
2021/12/24 14:42:29;;;;;;;14.95;4.93;;;;;;;;;;5156459;27;20019;-72
2021/12/24 14:45:11;;;;;;;15.88;5.25;;;;;;;;;;5156386;27;20046;-72
2021/12/24 14:47:39;;;;;;;14.60;4.43;;;;;;;;;;5156478;27;20042;-72
2021/12/24 14:50:08;;;;;;;15.70;5.75;;;;;;;;;;5155932;27;20046;-72
2021/12/24 14:52:35;;;;;;;15.23;5.00;;;;;;;;;;5156076;27;20018;-73
2021/12/24 14:55:08;;;;;;;15.48;5.38;;;;;;;;;;5156122;27;20026;-72
2021/12/24 14:57:43;;;;;;;15.95;4.82;;;;;;;;;;5156096;27;20023;-72
2021/12/24 15:00:13;;;;;;;12.20;4.55;;;;;;;;;;5137431;27;20027;-72
2021/12/24 15:02:41;;;;;;;14.32;5.40;;;;;;;;;;5137659;27;20033;-72
2021/12/24 15:05:08;;;;;;;16.50;5.45;;;;;;;;;;5155984;27;20501;-72
2021/12/24 15:07:35;;;;;;;19.02;5.68;;;;;;;;;;5137318;27;20023;-72
2021/12/24 15:10:13;;;;;;;16.05;5.03;;;;;;;;;;5155911;27;20106;-72
2021/12/24 15:12:47;;;;;;;18.08;5.90;;;;;;;;;;5136882;27;20026;-72
2021/12/24 15:15:14;;;;;;;18.08;5.65;;;;;;;;;;5155781;27;20073;-72
2021/12/24 15:17:42;;;;;;;21.45;5.63;;;;;;;;;;5155678;27;20102;-72
2021/12/24 15:20:10;;;;;;;17.48;5.10;;;;;;;;;;5155717;27;20101;-72
2021/12/24 15:22:37;;;;;;;15.90;5.22;;;;;;;;;;5155710;27;20022;-72
2021/12/24 15:25:08;;;;;;;21.25;6.20;;;;;;;;;;5155622;27;20482;-72
2021/12/24 15:27:36;;;;;;;17.52;4.82;;;;;;;;;;5136742;27;20018;-72
2021/12/24 15:30:11;;;;;;;17.58;6.30;;;;;;;;;;5155501;27;20026;-72
2021/12/24 15:32:38;;;;;;;19.75;5.90;;;;;;;;;;5155379;27;20019;-72
2021/12/24 15:35:06;;;;;;;14.55;5.22;;;;;;;;;;5155451;27;20022;-72
2021/12/24 15:37:33;;;;;;;17.85;5.70;;;;;;;;;;5155313;27;20019;-72
2021/12/24 15:40:00;;;;;;;18.77;5.10;;;;;;;;;;5155202;27;20015;-72
2021/12/24 15:42:29;;;;;;;18.05;5.72;;;;;;;;;;5155267;27;20023;-72
2021/12/24 15:44:56;;;;;;;16.63;5.53;;;;;;;;;;5155297;27;20641;-72
2021/12/24 15:47:23;;;;;;;15.30;5.22;;;;;;;;;;5155311;27;20019;-73
2021/12/24 15:49:50;;;;;;;17.00;5.65;;;;;;;;;;5155191;27;20543;-72
2021/12/24 15:52:18;;;;;;;16.48;5.60;;;;;;;;;;5155153;27;20474;-72
2021/12/24 15:54:45;;;;;;;18.60;5.72;;;;;;;;;;5154938;27;20077;-72
2021/12/24 15:57:12;;;;;;;14.43;5.30;;;;;;;;;;5155199;27;20103;-72
2021/12/24 15:59:39;;;;;;;16.40;5.28;;;;;;;;;;5136129;27;20027;-72
2021/12/24 16:02:07;;;;;;;12.80;5.03;;;;;;;;;;5135531;27;20025;-72
2021/12/24 16:04:34;;;;;;;15.23;5.68;;;;;;;;;;5154889;27;20383;-72
2021/12/24 16:07:03;;;;;;;13.20;4.65;;;;;;;;;;5154940;27;20019;-72
2021/12/24 16:09:30;;;;;;;17.00;5.13;;;;;;;;;;5154868;27;20019;-73
2021/12/24 16:11:58;;;;;;;18.45;5.57;;;;;;;;;;5136281;27;20103;-72
2021/12/24 16:14:27;;;;;;;13.27;4.55;;;;;;;;;;5154872;27;20395;-72
2021/12/24 16:16:54;;;;;;;13.30;4.88;;;;;;;;;;5136229;27;20064;-72
2021/12/24 16:19:22;;;;;;;13.68;5.38;;;;;;;;;;5136233;27;20023;-71
2021/12/24 16:21:50;;;;;;;13.88;4.97;;;;;;;;;;5154752;27;20530;-72
2021/12/24 16:24:19;;;;;;;14.80;5.20;;;;;;;;;;5154707;27;20025;-72
2021/12/24 16:26:46;;;;;;;13.73;4.80;;;;;;;;;;5154743;27;20019;-72
2021/12/24 16:29:17;;;;;;;16.08;5.57;;;;;;;;;;5135703;27;20029;-72
2021/12/24 16:31:45;;;;;;;14.13;4.68;;;;;;;;;;5154726;27;20018;-72
2021/12/24 16:34:12;;;;;;;13.00;4.35;;;;;;;;;;5135878;27;20034;-72